EWG67Q EGPH-EDDK
Flight info
| Callsign | EWG67Q |
|---|---|
| Flight time | N/A |
| Altitude | 25000 |
| Route | TLA Y96 OTBUN/N0442F390 DCT GODOS DCT BERGI DCT PAM L620 SONEB/N0377F230 Z841 GETNI T858 KOPAG |
| Aircraft | A20N/M-SDE2E3FGHIRWXY/LB1 |
Departure
| Time | 2026-04-25 17:03 |
|---|---|
| Airport | Edinburgh Airport (EGPH) |
Arrival
| Time | N/A |
|---|---|
| Airport | Cologne Bonn Airport (EDDK) |
| Time | Latitude | Longitude | Altitude | Speed | Heading |
|---|---|---|---|---|---|
| 2026-04-25 16:31 | 55.95013 | -3.36029 | 117 ft | 0 kts | 244° |
| 2026-04-25 16:52 | 55.95014 | -3.36029 | 116 ft | 1 kts | 244° |
| 2026-04-25 16:52 | 55.95025 | -3.35995 | 116 ft | 4 kts | 225° |
| 2026-04-25 16:52 | 55.95043 | -3.35963 | 116 ft | 3 kts | 245° |
| 2026-04-25 16:53 | 55.95055 | -3.35881 | 112 ft | 4 kts | 279° |
| 2026-04-25 16:53 | 55.95050 | -3.35853 | 116 ft | 2 kts | 298° |
| 2026-04-25 16:53 | 55.95063 | -3.35893 | 116 ft | 4 kts | 298° |
| 2026-04-25 16:54 | 55.95070 | -3.35918 | 114 ft | 0 kts | 298° |
| 2026-04-25 16:56 | 55.95071 | -3.35920 | 116 ft | 1 kts | 298° |
| 2026-04-25 16:56 | 55.95081 | -3.35952 | 116 ft | 6 kts | 298° |
| 2026-04-25 16:57 | 55.95101 | -3.36041 | 116 ft | 9 kts | 288° |
| 2026-04-25 16:57 | 55.95115 | -3.36118 | 114 ft | 11 kts | 288° |
| 2026-04-25 16:57 | 55.95126 | -3.36309 | 113 ft | 14 kts | 241° |
| 2026-04-25 16:57 | 55.95072 | -3.36466 | 114 ft | 16 kts | 239° |
| 2026-04-25 16:58 | 55.95011 | -3.36647 | 113 ft | 18 kts | 239° |
| 2026-04-25 16:58 | 55.94941 | -3.36851 | 115 ft | 20 kts | 239° |
| 2026-04-25 16:58 | 55.94864 | -3.37078 | 114 ft | 22 kts | 239° |
| 2026-04-25 16:58 | 55.94779 | -3.37328 | 113 ft | 25 kts | 239° |
| 2026-04-25 16:59 | 55.94687 | -3.37599 | 113 ft | 27 kts | 239° |
| 2026-04-25 16:59 | 55.94589 | -3.37887 | 115 ft | 25 kts | 238° |
| 2026-04-25 16:59 | 55.94509 | -3.38125 | 115 ft | 23 kts | 239° |
| 2026-04-25 16:59 | 55.94421 | -3.38383 | 116 ft | 25 kts | 239° |
| 2026-04-25 17:00 | 55.94341 | -3.38620 | 113 ft | 11 kts | 238° |
| 2026-04-25 17:00 | 55.94307 | -3.38722 | 116 ft | 11 kts | 238° |
| 2026-04-25 17:00 | 55.94277 | -3.38852 | 116 ft | 12 kts | 285° |
| 2026-04-25 17:00 | 55.94354 | -3.38939 | 112 ft | 15 kts | 328° |
| 2026-04-25 17:01 | 55.94419 | -3.38967 | 114 ft | 9 kts | 40° |
| 2026-04-25 17:01 | 55.94430 | -3.38937 | 114 ft | 0 kts | 59° |
| 2026-04-25 17:02 | 55.94435 | -3.38922 | 114 ft | 6 kts | 59° |
| 2026-04-25 17:02 | 55.94570 | -3.38521 | 112 ft | 71 kts | 59° |
| 2026-04-25 17:02 | 55.94933 | -3.37453 | 111 ft | 130 kts | 59° |
| 2026-04-25 17:02 | 55.95283 | -3.36423 | 206 ft | 154 kts | 59° |
| 2026-04-25 17:03 | 55.96006 | -3.34331 | 1149 ft | 150 kts | 52° |
| 2026-04-25 17:03 | 55.96800 | -3.33001 | 1554 ft | 166 kts | 41° |
| 2026-04-25 17:03 | 55.97710 | -3.31544 | 1939 ft | 185 kts | 43° |
| 2026-04-25 17:03 | 55.98709 | -3.29936 | 2396 ft | 201 kts | 43° |
| 2026-04-25 17:04 | 55.99809 | -3.28162 | 2788 ft | 225 kts | 43° |
| 2026-04-25 17:04 | 56.01029 | -3.26185 | 3321 ft | 248 kts | 43° |
| 2026-04-25 17:04 | 56.02327 | -3.24078 | 4224 ft | 254 kts | 42° |
| 2026-04-25 17:04 | 56.03650 | -3.21935 | 5162 ft | 260 kts | 42° |
| 2026-04-25 17:05 | 56.04818 | -3.19506 | 6060 ft | 266 kts | 62° |
| 2026-04-25 17:05 | 56.04878 | -3.12793 | 7663 ft | 288 kts | 97° |
| 2026-04-25 17:05 | 56.04316 | -3.09323 | 8444 ft | 295 kts | 119° |
| 2026-04-25 17:06 | 56.02971 | -3.06553 | 9232 ft | 299 kts | 143° |
| 2026-04-25 17:06 | 56.01283 | -3.04338 | 10072 ft | 303 kts | 145° |
| 2026-04-25 17:06 | 55.99553 | -3.02052 | 10589 ft | 319 kts | 144° |
| 2026-04-25 17:06 | 55.97557 | -3.00066 | 10849 ft | 339 kts | 165° |
| 2026-04-25 17:07 | 55.95211 | -2.99739 | 11398 ft | 343 kts | 191° |
| 2026-04-25 17:07 | 55.92951 | -3.01062 | 12088 ft | 343 kts | 207° |
| 2026-04-25 17:07 | 55.90757 | -3.02821 | 12822 ft | 347 kts | 207° |
| 2026-04-25 17:07 | 55.88479 | -3.04321 | 13534 ft | 354 kts | 194° |
| 2026-04-25 17:08 | 55.86003 | -3.04476 | 14227 ft | 362 kts | 173° |
| 2026-04-25 17:08 | 55.83601 | -3.03036 | 14927 ft | 368 kts | 152° |
| 2026-04-25 17:08 | 55.81405 | -3.00690 | 15632 ft | 370 kts | 149° |
| 2026-04-25 17:08 | 55.79205 | -2.98289 | 16309 ft | 372 kts | 149° |
| 2026-04-25 17:09 | 55.76994 | -2.95870 | 16957 ft | 375 kts | 149° |
| 2026-04-25 17:09 | 55.74771 | -2.93434 | 17593 ft | 377 kts | 149° |
| 2026-04-25 17:09 | 55.72526 | -2.90973 | 18227 ft | 379 kts | 149° |
| 2026-04-25 17:09 | 55.70286 | -2.88523 | 18846 ft | 382 kts | 149° |
| 2026-04-25 17:10 | 55.68008 | -2.86044 | 19434 ft | 385 kts | 149° |
| 2026-04-25 17:10 | 55.65713 | -2.83561 | 20014 ft | 387 kts | 149° |
| 2026-04-25 17:10 | 55.63436 | -2.81110 | 20590 ft | 390 kts | 149° |
| 2026-04-25 17:10 | 55.61073 | -2.78571 | 21146 ft | 393 kts | 149° |
| 2026-04-25 17:11 | 55.58759 | -2.76087 | 21686 ft | 396 kts | 149° |
| 2026-04-25 17:11 | 55.56394 | -2.73548 | 22194 ft | 399 kts | 149° |
| 2026-04-25 17:11 | 55.54012 | -2.70988 | 22714 ft | 402 kts | 149° |
| 2026-04-25 17:11 | 55.51615 | -2.68411 | 23206 ft | 405 kts | 149° |
| 2026-04-25 17:12 | 55.49199 | -2.65821 | 23680 ft | 408 kts | 149° |
| 2026-04-25 17:12 | 55.46780 | -2.63234 | 24146 ft | 410 kts | 149° |
| 2026-04-25 17:12 | 55.44318 | -2.60603 | 24611 ft | 413 kts | 149° |
| 2026-04-25 17:12 | 55.41861 | -2.57978 | 25048 ft | 416 kts | 149° |
| 2026-04-25 17:13 | 55.39383 | -2.55332 | 25484 ft | 418 kts | 149° |
| 2026-04-25 17:13 | 55.37733 | -2.53574 | 25767 ft | 419 kts | 149° |
| 2026-04-25 17:13 | 55.34375 | -2.50013 | 26340 ft | 422 kts | 149° |
| 2026-04-25 17:13 | 55.31858 | -2.47341 | 26732 ft | 425 kts | 148° |
| 2026-04-25 17:14 | 55.29490 | -2.44207 | 27122 ft | 428 kts | 138° |
| 2026-04-25 17:14 | 55.27451 | -2.40400 | 27501 ft | 430 kts | 128° |
| 2026-04-25 17:14 | 55.25798 | -2.36009 | 27882 ft | 433 kts | 118° |
| 2026-04-25 17:14 | 55.24374 | -2.31336 | 28259 ft | 435 kts | 118° |
| 2026-04-25 17:15 | 55.22945 | -2.26662 | 28631 ft | 438 kts | 118° |
| 2026-04-25 17:15 | 55.21495 | -2.21954 | 28996 ft | 440 kts | 118° |
| 2026-04-25 17:15 | 55.20034 | -2.17233 | 29356 ft | 442 kts | 118° |
| 2026-04-25 17:15 | 55.18561 | -2.12496 | 29717 ft | 443 kts | 118° |
| 2026-04-25 17:16 | 55.17085 | -2.07760 | 30060 ft | 445 kts | 118° |
| 2026-04-25 17:16 | 55.15595 | -2.02987 | 30392 ft | 447 kts | 118° |
| 2026-04-25 17:16 | 55.14122 | -1.98265 | 30701 ft | 449 kts | 118° |
| 2026-04-25 17:16 | 55.12623 | -1.93462 | 31007 ft | 451 kts | 118° |
| 2026-04-25 17:17 | 55.11118 | -1.88649 | 31308 ft | 453 kts | 118° |
| 2026-04-25 17:17 | 55.09598 | -1.83814 | 31604 ft | 454 kts | 118° |
| 2026-04-25 17:17 | 55.08073 | -1.78974 | 31891 ft | 457 kts | 119° |
| 2026-04-25 17:17 | 55.06543 | -1.74126 | 32286 ft | 455 kts | 118° |
| 2026-04-25 17:18 | 55.05018 | -1.69300 | 32690 ft | 454 kts | 119° |
| 2026-04-25 17:18 | 55.03495 | -1.64485 | 33082 ft | 453 kts | 119° |
| 2026-04-25 17:18 | 55.01975 | -1.59686 | 33470 ft | 452 kts | 119° |
| 2026-04-25 17:18 | 55.00454 | -1.54892 | 33869 ft | 450 kts | 119° |
| 2026-04-25 17:19 | 54.98939 | -1.50119 | 34241 ft | 450 kts | 119° |
| 2026-04-25 17:19 | 54.97424 | -1.45362 | 34596 ft | 449 kts | 119° |
| 2026-04-25 17:19 | 54.95908 | -1.40616 | 34949 ft | 449 kts | 119° |
| 2026-04-25 17:19 | 54.94387 | -1.35868 | 35296 ft | 448 kts | 119° |
| 2026-04-25 17:20 | 54.92874 | -1.31155 | 35635 ft | 448 kts | 119° |
| 2026-04-25 17:20 | 54.91354 | -1.26425 | 35954 ft | 447 kts | 119° |
| 2026-04-25 17:20 | 54.89833 | -1.21706 | 36262 ft | 447 kts | 119° |
| 2026-04-25 17:20 | 54.88329 | -1.17048 | 36552 ft | 447 kts | 119° |
| 2026-04-25 17:21 | 54.86788 | -1.12284 | 36842 ft | 447 kts | 119° |
| 2026-04-25 17:21 | 54.85284 | -1.07641 | 37109 ft | 447 kts | 119° |
| 2026-04-25 17:21 | 54.83760 | -1.02939 | 37257 ft | 447 kts | 119° |
| 2026-04-25 17:21 | 54.82241 | -0.98261 | 37286 ft | 445 kts | 119° |
| 2026-04-25 17:22 | 54.79692 | -0.90448 | 37284 ft | 443 kts | 120° |
| 2026-04-25 17:22 | 54.76166 | -0.79675 | 37284 ft | 442 kts | 120° |
| 2026-04-25 17:23 | 54.73139 | -0.70452 | 37285 ft | 440 kts | 120° |
| 2026-04-25 17:23 | 54.70108 | -0.61261 | 37285 ft | 439 kts | 120° |
| 2026-04-25 17:24 | 54.67074 | -0.52105 | 37289 ft | 439 kts | 120° |
| 2026-04-25 17:24 | 54.64028 | -0.42954 | 37287 ft | 439 kts | 120° |
| 2026-04-25 17:25 | 54.60974 | -0.33815 | 37286 ft | 439 kts | 120° |
| 2026-04-25 17:25 | 54.57925 | -0.24701 | 37287 ft | 439 kts | 120° |
| 2026-04-25 17:26 | 54.54861 | -0.15574 | 37286 ft | 439 kts | 120° |
| 2026-04-25 17:26 | 54.51793 | -0.06486 | 37286 ft | 439 kts | 120° |
| 2026-04-25 17:27 | 54.48734 | 0.02547 | 37282 ft | 439 kts | 120° |
| 2026-04-25 17:27 | 54.46672 | 0.08607 | 37264 ft | 440 kts | 120° |
| 2026-04-25 17:28 | 54.42531 | 0.20723 | 37247 ft | 443 kts | 120° |
| 2026-04-25 17:28 | 54.39409 | 0.29849 | 37248 ft | 444 kts | 120° |
| 2026-04-25 17:29 | 54.36275 | 0.38999 | 37253 ft | 445 kts | 120° |
| 2026-04-25 17:29 | 54.33127 | 0.48154 | 37255 ft | 446 kts | 120° |
| 2026-04-25 17:30 | 54.29960 | 0.57285 | 37259 ft | 446 kts | 120° |
| 2026-04-25 17:30 | 54.26784 | 0.66397 | 37261 ft | 447 kts | 120° |
| 2026-04-25 17:31 | 54.23593 | 0.75536 | 37258 ft | 447 kts | 120° |
| 2026-04-25 17:31 | 54.20399 | 0.84656 | 37256 ft | 447 kts | 120° |
| 2026-04-25 17:32 | 54.17193 | 0.93780 | 37248 ft | 448 kts | 120° |
| 2026-04-25 17:32 | 54.13974 | 1.02916 | 37240 ft | 450 kts | 120° |
| 2026-04-25 17:33 | 54.10747 | 1.12058 | 37245 ft | 451 kts | 120° |
| 2026-04-25 17:33 | 54.07491 | 1.21198 | 37245 ft | 452 kts | 120° |
| 2026-04-25 17:34 | 54.04224 | 1.30335 | 37239 ft | 453 kts | 120° |
| 2026-04-25 17:34 | 54.00970 | 1.39424 | 37235 ft | 453 kts | 120° |
| 2026-04-25 17:35 | 53.97677 | 1.48586 | 37234 ft | 454 kts | 121° |
| 2026-04-25 17:35 | 53.94380 | 1.57729 | 37232 ft | 455 kts | 121° |
| 2026-04-25 17:36 | 53.91075 | 1.66888 | 37237 ft | 455 kts | 121° |
| 2026-04-25 17:36 | 53.87753 | 1.76029 | 37238 ft | 456 kts | 121° |
| 2026-04-25 17:37 | 53.84409 | 1.85171 | 37237 ft | 456 kts | 121° |
| 2026-04-25 17:37 | 53.81061 | 1.94302 | 37239 ft | 457 kts | 121° |
| 2026-04-25 17:38 | 53.78822 | 2.00421 | 37240 ft | 457 kts | 121° |
| 2026-04-25 17:38 | 53.74349 | 2.12577 | 37241 ft | 458 kts | 121° |
| 2026-04-25 17:39 | 53.70974 | 2.21710 | 37246 ft | 458 kts | 121° |
| 2026-04-25 17:39 | 53.67589 | 2.30824 | 37244 ft | 458 kts | 121° |
| 2026-04-25 17:40 | 53.64203 | 2.39896 | 37244 ft | 458 kts | 121° |
| 2026-04-25 17:40 | 53.60830 | 2.48904 | 37243 ft | 458 kts | 122° |
| 2026-04-25 17:41 | 53.57422 | 2.57969 | 37238 ft | 458 kts | 122° |
| 2026-04-25 17:41 | 53.54020 | 2.67014 | 37232 ft | 458 kts | 122° |
| 2026-04-25 17:42 | 53.50610 | 2.76060 | 37231 ft | 458 kts | 122° |
| 2026-04-25 17:42 | 53.47189 | 2.85072 | 37229 ft | 458 kts | 122° |
| 2026-04-25 17:43 | 53.43748 | 2.94076 | 37222 ft | 459 kts | 122° |
| 2026-04-25 17:43 | 53.40302 | 3.03092 | 37214 ft | 459 kts | 122° |
| 2026-04-25 17:44 | 53.36858 | 3.12110 | 37208 ft | 459 kts | 122° |
| 2026-04-25 17:44 | 53.33397 | 3.21089 | 37201 ft | 460 kts | 122° |
| 2026-04-25 17:45 | 53.31092 | 3.27030 | 37198 ft | 460 kts | 122° |
| 2026-04-25 17:45 | 53.26446 | 3.38969 | 37195 ft | 460 kts | 122° |
| 2026-04-25 17:46 | 53.22543 | 3.47432 | 37199 ft | 461 kts | 131° |
| 2026-04-25 17:46 | 53.18292 | 3.55438 | 37206 ft | 461 kts | 131° |
| 2026-04-25 17:47 | 53.14034 | 3.63441 | 37215 ft | 461 kts | 131° |
| 2026-04-25 17:47 | 53.09778 | 3.71436 | 37221 ft | 462 kts | 131° |
| 2026-04-25 17:48 | 53.04088 | 3.82047 | 37224 ft | 462 kts | 132° |
| 2026-04-25 17:49 | 52.99804 | 3.90006 | 37226 ft | 462 kts | 131° |
| 2026-04-25 17:49 | 52.95524 | 3.97964 | 37228 ft | 462 kts | 132° |
| 2026-04-25 17:50 | 52.91233 | 4.05911 | 37227 ft | 462 kts | 132° |
| 2026-04-25 17:50 | 52.86929 | 4.13832 | 37219 ft | 463 kts | 132° |
| 2026-04-25 17:51 | 52.82276 | 4.22355 | 37214 ft | 464 kts | 132° |
| 2026-04-25 17:51 | 52.77959 | 4.30259 | 37216 ft | 465 kts | 132° |
| 2026-04-25 17:52 | 52.73617 | 4.38174 | 37213 ft | 465 kts | 133° |
| 2026-04-25 17:52 | 52.69241 | 4.46041 | 37215 ft | 466 kts | 133° |
| 2026-04-25 17:53 | 52.64840 | 4.53874 | 37216 ft | 466 kts | 133° |
| 2026-04-25 17:53 | 52.60482 | 4.61619 | 37218 ft | 466 kts | 133° |
| 2026-04-25 17:54 | 52.56077 | 4.69457 | 37217 ft | 466 kts | 133° |
| 2026-04-25 17:54 | 52.51682 | 4.77254 | 37217 ft | 466 kts | 133° |
| 2026-04-25 17:55 | 52.47264 | 4.85050 | 37213 ft | 466 kts | 133° |
| 2026-04-25 17:55 | 52.42843 | 4.92817 | 37210 ft | 466 kts | 133° |
| 2026-04-25 17:56 | 52.38419 | 5.00573 | 37211 ft | 466 kts | 134° |
| 2026-04-25 17:56 | 52.34232 | 5.08568 | 37204 ft | 467 kts | 123° |
| 2026-04-25 17:57 | 52.31372 | 5.18041 | 37202 ft | 465 kts | 109° |
| 2026-04-25 17:57 | 52.29046 | 5.27915 | 37195 ft | 466 kts | 110° |
| 2026-04-25 17:58 | 52.26680 | 5.37810 | 37180 ft | 467 kts | 110° |
| 2026-04-25 17:58 | 52.24298 | 5.47672 | 37180 ft | 468 kts | 110° |
| 2026-04-25 17:59 | 52.21912 | 5.57536 | 37183 ft | 468 kts | 110° |
| 2026-04-25 17:59 | 52.19517 | 5.67419 | 37181 ft | 469 kts | 110° |
| 2026-04-25 18:00 | 52.17520 | 5.75628 | 37183 ft | 469 kts | 110° |
| 2026-04-25 18:00 | 52.14699 | 5.87178 | 37178 ft | 470 kts | 110° |
| 2026-04-25 18:01 | 52.12268 | 5.97039 | 37186 ft | 469 kts | 111° |
| 2026-04-25 18:01 | 52.09906 | 6.06942 | 37176 ft | 469 kts | 105° |